Time;durP1;ratioP1;P1;durP2;ratioP2;P2;SDS_P1;SDS_P2;PMS_P1;PMS_P2;Temp;Humidity;BMP_temperature;BMP_pressure;BME280_temperature;BME280_humidity;BME280_pressure;Samples;Min_cycle;Max_cycle;Signal;HPM_P1;HPM_P2
2024/02/24 00:01:53;;;;;;;25.50;16.70;;;;;;;6.76;88.40;99777.91;106326;1256;72682;-78
2024/02/24 00:04:21;;;;;;;28.60;17.90;;;;;;;6.71;88.41;99772.71;108996;1256;58897;-77
2024/02/24 00:06:49;;;;;;;25.40;16.40;;;;;;;6.71;88.52;99771.88;108034;1254;60907;-78
2024/02/24 00:09:17;;;;;;;22.60;15.80;;;;;;;6.75;88.37;99774.48;105930;1257;73014;-81
2024/02/24 00:11:44;;;;;;;26.40;16.90;;;;;;;6.75;88.31;99779.43;105830;1254;72094;-78
2024/02/24 00:14:12;;;;;;;23.40;17.10;;;;;;;6.71;88.11;99785.22;105782;1260;72633;-78
2024/02/24 00:16:39;;;;;;;22.40;15.60;;;;;;;6.68;88.39;99783.23;106688;1254;60603;-78
2024/02/24 00:19:07;;;;;;;21.00;16.20;;;;;;;6.72;88.10;99773.52;106569;1259;59626;-80
2024/02/24 00:21:34;;;;;;;20.70;15.60;;;;;;;6.78;87.94;99787.42;108689;1251;71506;-77
2024/02/24 00:24:02;;;;;;;22.60;15.70;;;;;;;6.77;87.76;99788.56;106552;1253;69181;-79
2024/02/24 00:26:29;;;;;;;23.60;16.90;;;;;;;6.72;87.75;99782.30;105975;1257;71433;-77
2024/02/24 00:28:56;;;;;;;21.60;15.20;;;;;;;6.72;87.66;99789.71;105950;1254;60349;-79
2024/02/24 00:31:24;;;;;;;23.10;15.10;;;;;;;6.77;87.61;99792.20;105944;1254;59797;-79
2024/02/24 00:33:51;;;;;;;20.40;15.80;;;;;;;6.77;87.38;99791.39;105975;1254;73111;-79
2024/02/24 00:36:19;;;;;;;25.10;15.70;;;;;;;6.72;87.27;99798.75;106013;1254;70632;-76
2024/02/24 00:38:46;;;;;;;23.60;15.70;;;;;;;6.67;87.54;99788.89;105768;1254;71363;-78
2024/02/24 00:41:15;;;;;;;19.40;14.50;;;;;;;6.70;87.31;99782.46;106128;1257;59655;-79
2024/02/24 00:43:42;;;;;;;20.60;15.00;;;;;;;6.75;87.28;99788.44;106523;1254;59519;-76
2024/02/24 00:46:10;;;;;;;21.50;15.00;;;;;;;6.71;87.15;99776.94;106449;1257;73381;-78
2024/02/24 00:48:37;;;;;;;22.80;16.50;;;;;;;6.64;87.48;99787.78;106074;1254;70569;-78
2024/02/24 00:51:05;;;;;;;20.80;14.50;;;;;;;6.62;87.39;99785.51;105851;1254;71209;-79
2024/02/24 00:53:32;;;;;;;22.00;14.30;;;;;;;6.68;87.28;99775.77;106031;1254;60544;-77
2024/02/24 00:56:00;;;;;;;22.10;14.50;;;;;;;6.71;87.21;99777.71;107462;1253;59666;-76
2024/02/24 00:58:27;;;;;;;20.70;14.90;;;;;;;6.68;87.26;99774.95;109092;1251;71638;-78
2024/02/24 01:00:54;;;;;;;24.10;15.10;;;;;;;6.65;87.31;99782.04;107235;1257;68718;-77
2024/02/24 01:03:22;;;;;;;20.50;13.40;;;;;;;6.72;86.78;99776.35;105871;1256;71441;-79
2024/02/24 01:05:50;;;;;;;18.30;13.90;;;;;;;6.77;86.61;99783.62;106020;1260;60146;-79
2024/02/24 01:08:17;;;;;;;22.00;14.00;;;;;;;6.76;86.52;99785.67;105760;1254;60070;-77
2024/02/24 01:10:45;;;;;;;24.90;15.90;;;;;;;6.71;86.36;99784.55;106420;1257;72105;-79
2024/02/24 01:13:13;;;;;;;20.40;14.00;;;;;;;6.67;86.62;99786.67;106701;1257;69926;-77
2024/02/24 01:15:40;;;;;;;22.30;13.90;;;;;;;6.70;86.43;99783.19;105855;1257;70723;-78
2024/02/24 01:18:08;;;;;;;20.10;14.20;;;;;;;6.74;86.34;99786.55;105783;1254;60016;-76
2024/02/24 01:20:36;;;;;;;20.50;14.40;;;;;;;6.72;86.54;99778.79;105637;1254;60253;-77
2024/02/24 01:23:03;;;;;;;21.90;14.50;;;;;;;6.70;86.56;99784.11;105630;1252;71723;-77
2024/02/24 01:25:31;;;;;;;24.00;14.90;;;;;;;6.66;86.34;99779.55;105696;1254;70484;-77
2024/02/24 01:27:59;;;;;;;21.00;13.50;;;;;;;6.69;86.41;99779.48;105763;1254;71560;-78
2024/02/24 01:30:26;;;;;;;19.70;14.40;;;;;;;6.71;86.23;99782.55;105539;1254;60109;-77
2024/02/24 01:32:54;;;;;;;20.20;15.30;;;;;;;6.69;86.29;99784.16;105566;1257;59666;-79
2024/02/24 01:35:21;;;;;;;21.00;14.50;;;;;;;6.64;85.99;99783.27;105707;1254;73001;-78
2024/02/24 01:37:49;;;;;;;22.00;14.70;;;;;;;6.60;86.13;99793.06;106605;1254;70459;-77
2024/02/24 01:40:16;;;;;;;21.10;13.60;;;;;;;6.66;86.13;99792.52;106458;1254;72490;-77
2024/02/24 01:42:44;;;;;;;19.60;14.80;;;;;;;6.69;86.17;99786.64;106115;1258;59661;-77
2024/02/24 01:45:12;;;;;;;19.10;14.10;;;;;;;6.66;86.28;99786.19;106060;1254;59660;-79
2024/02/24 01:47:40;;;;;;;20.40;14.80;;;;;;;6.63;86.20;99784.00;106213;1254;71807;-78
2024/02/24 01:50:12;;;;;;;19.60;13.90;;;;;;;6.61;86.32;99783.65;107815;1254;70154;-76
2024/02/24 01:52:40;;;;;;;21.60;13.00;;;;;;;6.67;85.75;99783.97;107945;1254;71409;-76
2024/02/24 01:55:10;;;;;;;20.40;13.50;;;;;;;6.72;85.48;99785.30;107650;1254;59682;-76
2024/02/24 01:57:45;;;;;;;21.60;14.70;;;;;;;6.69;85.13;99782.38;106130;1259;59621;-79
2024/02/24 02:00:13;;;;;;;20.30;12.50;;;;;;;6.63;85.25;99775.36;105734;1254;71756;-77
2024/02/24 02:02:43;;;;;;;19.50;13.70;;;;;;;6.60;84.98;99783.44;106016;1258;70087;-76
2024/02/24 02:05:11;;;;;;;18.30;13.40;;;;;;;6.60;84.59;99787.76;106494;1259;71588;-77
2024/02/24 02:07:39;;;;;;;18.30;13.10;;;;;;;6.61;84.40;99787.08;107791;1254;60398;-78
2024/02/24 02:10:07;;;;;;;18.30;13.50;;;;;;;6.56;84.54;99780.50;107483;1257;60363;-78
2024/02/24 02:12:35;;;;;;;19.90;13.60;;;;;;;6.51;84.61;99776.89;106727;1254;72628;-77
2024/02/24 02:15:04;;;;;;;19.60;12.60;;;;;;;6.45;84.75;99777.73;107056;1253;69126;-76
2024/02/24 02:17:32;;;;;;;22.10;12.20;;;;;;;6.48;84.55;99777.11;106267;1254;71411;-79
2024/02/24 02:20:01;;;;;;;18.90;12.00;;;;;;;6.52;84.52;99790.33;106147;1258;60515;-78
2024/02/24 02:22:30;;;;;;;19.60;13.20;;;;;;;6.46;84.52;99782.02;105891;1254;60535;-77
2024/02/24 02:24:57;;;;;;;18.40;12.70;;;;;;;6.39;84.65;99786.70;105802;1254;72422;-78
2024/02/24 02:27:25;;;;;;;24.30;13.30;;;;;;;6.34;84.55;99800.95;106066;1257;68944;-78
2024/02/24 02:29:52;;;;;;;16.50;12.20;;;;;;;6.38;84.67;99800.90;105704;1258;72190;-78
2024/02/24 02:32:20;;;;;;;19.80;12.10;;;;;;;6.41;84.80;99798.18;106279;1254;60494;-77
2024/02/24 02:34:47;;;;;;;18.10;11.60;;;;;;;6.38;84.81;99798.48;106577;1254;60795;-78
2024/02/24 02:37:15;;;;;;;17.40;12.70;;;;;;;6.34;84.83;99794.57;106278;1259;72598;-78
2024/02/24 02:39:42;;;;;;;17.80;12.40;;;;;;;6.29;84.88;99796.79;106574;1254;70456;-78
2024/02/24 02:42:10;;;;;;;19.10;12.40;;;;;;;6.34;84.78;99791.98;106636;1253;71546;-77
2024/02/24 02:44:38;;;;;;;21.10;12.40;;;;;;;6.40;84.81;99803.50;108199;1254;60292;-77
2024/02/24 02:47:05;;;;;;;21.20;12.70;;;;;;;6.38;84.74;99808.81;107447;1254;60523;-78
2024/02/24 02:49:45;;;;;;;18.60;12.00;;;;;;;6.31;84.92;99805.39;106139;1252;71252;-76
2024/02/24 02:52:13;;;;;;;24.10;12.80;;;;;;;6.26;84.91;99819.73;106067;1257;68854;-76
2024/02/24 02:54:40;;;;;;;18.70;12.70;;;;;;;6.31;84.87;99817.73;106614;1254;72719;-75
2024/02/24 02:57:08;;;;;;;18.60;12.70;;;;;;;6.38;84.93;99818.53;106609;1254;60516;-75
2024/02/24 02:59:35;;;;;;;17.10;12.90;;;;;;;6.34;84.69;99821.15;106875;1254;60358;-77
2024/02/24 03:02:03;;;;;;;21.80;13.70;;;;;;;6.25;84.71;99822.10;106848;1254;73934;-74
2024/02/24 03:04:31;;;;;;;22.90;12.80;;;;;;;6.20;85.16;99827.19;106565;1257;68787;-77
2024/02/24 03:06:58;;;;;;;16.30;12.60;;;;;;;6.23;85.00;99826.92;105901;1257;70700;-76
2024/02/24 03:09:26;;;;;;;19.60;13.20;;;;;;;6.29;84.76;99825.09;106178;1254;60421;-79
2024/02/24 03:11:53;;;;;;;22.60;13.10;;;;;;;6.25;84.89;99825.11;105799;1254;60396;-78
2024/02/24 03:14:21;;;;;;;20.30;13.60;;;;;;;6.20;84.93;99821.03;105785;1253;72852;-78
2024/02/24 03:16:48;;;;;;;24.70;14.50;;;;;;;6.16;85.20;99823.48;106062;1254;70454;-76
2024/02/24 03:19:16;;;;;;;19.90;13.60;;;;;;;6.17;85.12;99826.00;106451;1254;71165;-75
2024/02/24 03:21:44;;;;;;;19.90;13.10;;;;;;;6.24;84.65;99827.90;106020;1260;60629;-76
2024/02/24 03:24:12;;;;;;;22.80;15.20;;;;;;;6.22;84.97;99825.79;106102;1251;60520;-76
2024/02/24 03:26:39;;;;;;;20.30;14.20;;;;;;;6.17;85.03;99828.63;106597;1254;73346;-76
2024/02/24 03:29:07;;;;;;;26.00;15.60;;;;;;;6.10;84.93;99833.13;108214;1254;68741;-78
2024/02/24 03:31:35;;;;;;;18.70;13.20;;;;;;;6.10;85.01;99833.99;106798;1257;72780;-77
2024/02/24 03:34:03;;;;;;;22.90;14.00;;;;;;;6.18;84.79;99839.83;106162;1259;60438;-77
2024/02/24 03:36:30;;;;;;;19.80;15.00;;;;;;;6.18;84.54;99845.46;107682;1254;60329;-77
2024/02/24 03:38:58;;;;;;;20.50;14.20;;;;;;;6.11;84.70;99840.98;108655;1254;72367;-78
2024/02/24 03:41:30;;;;;;;22.60;14.70;;;;;;;6.05;84.89;99840.08;107030;1254;69013;-76
2024/02/24 03:43:58;;;;;;;29.20;16.30;;;;;;;6.02;84.82;99834.05;106095;1254;72797;-77
2024/02/24 03:46:25;;;;;;;22.10;14.10;;;;;;;6.06;84.74;99835.07;105876;1257;60600;-76
2024/02/24 03:48:53;;;;;;;19.90;14.50;;;;;;;6.09;84.43;99828.60;105918;1251;60485;-78
2024/02/24 03:51:21;;;;;;;23.70;14.50;;;;;;;6.05;84.59;99841.27;106031;1252;73403;-78
2024/02/24 03:53:48;;;;;;;21.00;15.10;;;;;;;6.00;84.61;99841.73;105993;1257;70272;-79
2024/02/24 03:56:16;;;;;;;21.20;14.00;;;;;;;5.95;84.76;99843.43;106427;1254;71064;-79
2024/02/24 03:58:45;;;;;;;24.10;16.10;;;;;;;6.01;84.62;99853.30;106271;1254;61801;-78
2024/02/24 04:01:12;;;;;;;23.70;14.60;;;;;;;6.03;84.60;99845.17;106037;1259;60415;-77
2024/02/24 04:03:40;;;;;;;20.50;13.70;;;;;;;6.00;84.71;99842.45;105857;1257;76157;-77
2024/02/24 04:06:07;;;;;;;23.80;15.80;;;;;;;5.95;84.45;99838.48;106396;1254;69980;-76
2024/02/24 04:08:36;;;;;;;20.30;14.30;;;;;;;5.90;84.66;99840.14;106559;1254;71524;-79
2024/02/24 04:11:04;;;;;;;22.60;15.50;;;;;;;5.93;84.29;99844.98;106393;1259;60562;-79
2024/02/24 04:13:31;;;;;;;21.70;14.00;;;;;;;5.93;84.50;99845.51;106134;1254;60342;-79
2024/02/24 04:15:59;;;;;;;22.20;15.80;;;;;;;5.90;84.45;99847.75;106215;1260;73913;-77
2024/02/24 04:18:26;;;;;;;23.40;16.30;;;;;;;5.84;84.59;99850.17;105985;1258;68728;-78
2024/02/24 04:20:54;;;;;;;23.00;16.10;;;;;;;5.79;84.78;99844.64;106284;1259;72889;-78
2024/02/24 04:23:22;;;;;;;19.20;14.50;;;;;;;5.83;84.57;99843.23;106752;1254;60307;-78
2024/02/24 04:25:49;;;;;;;22.40;14.80;;;;;;;5.88;84.56;99843.80;107290;1254;60469;-78
2024/02/24 04:28:17;;;;;;;18.70;14.50;;;;;;;5.88;84.70;99837.00;106398;1254;72563;-79
2024/02/24 04:30:47;;;;;;;23.50;15.10;;;;;;;5.84;84.47;99846.32;108193;1253;69021;-77
2024/02/24 04:33:19;;;;;;;19.80;13.70;;;;;;;5.81;84.52;99848.20;108403;1254;71392;-79
2024/02/24 04:35:47;;;;;;;19.90;12.70;;;;;;;5.85;84.45;99848.47;106420;1252;60540;-77
2024/02/24 04:38:15;;;;;;;21.70;13.10;;;;;;;5.92;84.22;99846.48;106254;1259;60325;-79
2024/02/24 04:40:42;;;;;;;23.10;14.10;;;;;;;5.91;84.04;99846.06;106192;1260;72641;-79
2024/02/24 04:43:10;;;;;;;23.20;14.50;;;;;;;5.87;84.18;99846.44;106753;1254;69970;-78
2024/02/24 04:45:37;;;;;;;23.90;15.10;;;;;;;5.84;84.28;99844.73;107083;1258;70108;-77
2024/02/24 04:48:05;;;;;;;27.60;12.90;;;;;;;5.84;84.07;99850.02;106731;1253;60926;-79
2024/02/24 04:50:33;;;;;;;23.30;13.00;;;;;;;5.90;83.99;99850.01;106897;1259;60912;-77
2024/02/24 04:53:01;;;;;;;20.30;13.40;;;;;;;5.90;83.74;99846.97;107565;1254;72500;-80
2024/02/24 04:55:29;;;;;;;19.90;13.70;;;;;;;5.86;83.78;99849.85;106374;1259;72152;-78
2024/02/24 04:57:56;;;;;;;20.00;12.80;;;;;;;5.81;83.89;99848.49;106242;1259;73754;-80
2024/02/24 05:00:24;;;;;;;21.40;12.60;;;;;;;5.80;83.82;99852.27;107855;1252;60844;-77
2024/02/24 05:02:52;;;;;;;18.00;12.50;;;;;;;5.86;83.60;99854.27;107152;1258;60811;-80
2024/02/24 05:05:20;;;;;;;16.50;11.90;;;;;;;5.86;83.66;99854.90;106194;1258;73803;-78
2024/02/24 05:07:48;;;;;;;17.20;12.80;;;;;;;5.83;83.85;99862.77;106166;1254;68894;-77
2024/02/24 05:10:15;;;;;;;18.80;12.10;;;;;;;5.78;83.80;99869.92;105879;1259;70395;-78
2024/02/24 05:12:47;;;;;;;19.00;12.20;;;;;;;5.75;83.74;99864.52;106196;1254;60536;-80
2024/02/24 05:15:18;;;;;;;19.90;12.10;;;;;;;5.80;83.55;99871.07;106198;1253;60560;-78
2024/02/24 05:17:46;;;;;;;22.40;12.00;;;;;;;5.81;83.48;99873.48;106341;1254;71518;-79
2024/02/24 05:20:14;;;;;;;21.20;13.50;;;;;;;5.77;83.53;99871.58;106902;1259;70438;-79
2024/02/24 05:22:41;;;;;;;18.40;12.90;;;;;;;5.70;83.59;99875.97;107283;1253;71629;-78
2024/02/24 05:25:09;;;;;;;20.30;12.40;;;;;;;5.67;83.68;99874.69;108787;1253;59610;-78
2024/02/24 05:27:37;;;;;;;17.60;11.20;;;;;;;5.76;83.53;99883.09;107634;1253;60319;-77
2024/02/24 05:30:05;;;;;;;18.20;11.80;;;;;;;5.80;83.37;99881.48;106004;1254;73915;-78
2024/02/24 05:32:32;;;;;;;21.70;13.10;;;;;;;5.78;83.53;99883.46;105793;1259;68847;-79
2024/02/24 05:35:00;;;;;;;17.70;12.60;;;;;;;5.74;83.40;99885.52;106273;1255;72468;-77
2024/02/24 05:37:28;;;;;;;20.00;12.20;;;;;;;5.71;83.48;99882.27;106197;1254;60389;-81
2024/02/24 05:39:58;;;;;;;18.60;11.70;;;;;;;5.78;83.42;99886.56;106190;1254;60613;-79
2024/02/24 05:42:26;;;;;;;16.50;10.70;;;;;;;5.85;83.09;99894.77;105931;1254;71991;-76
2024/02/24 05:44:53;;;;;;;17.90;12.30;;;;;;;5.82;82.90;99896.05;106168;1260;68937;-78
2024/02/24 05:47:21;;;;;;;17.70;11.90;;;;;;;5.78;82.91;99896.65;106723;1254;70644;-78
2024/02/24 05:49:48;;;;;;;20.90;12.40;;;;;;;5.73;82.96;99899.45;106400;1254;60452;-79
2024/02/24 05:52:16;;;;;;;22.30;12.30;;;;;;;5.70;83.12;99902.69;106420;1252;60392;-80
2024/02/24 05:54:44;;;;;;;16.00;11.20;;;;;;;5.78;82.86;99903.64;106438;1255;73775;-78
2024/02/24 05:57:11;;;;;;;16.30;11.80;;;;;;;5.84;82.61;99901.90;106349;1257;68832;-80
2024/02/24 05:59:39;;;;;;;23.00;12.10;;;;;;;5.83;82.88;99905.83;106373;1254;70382;-79
2024/02/24 06:02:06;;;;;;;17.70;12.10;;;;;;;5.82;82.69;99917.70;106214;1257;60977;-79
2024/02/24 06:04:34;;;;;;;16.70;10.60;;;;;;;5.81;82.49;99907.03;105952;1253;60728;-77
2024/02/24 06:07:01;;;;;;;16.80;11.60;;;;;;;5.88;82.35;99914.71;106061;1259;74772;-78
2024/02/24 06:09:29;;;;;;;18.60;11.10;;;;;;;5.90;82.12;99913.50;106058;1254;70096;-78
2024/02/24 06:11:56;;;;;;;16.30;11.10;;;;;;;5.86;82.11;99919.63;105832;1260;71174;-77
2024/02/24 06:14:24;;;;;;;14.00;10.20;;;;;;;5.82;82.13;99910.82;106605;1257;60606;-76
2024/02/24 06:16:51;;;;;;;15.40;10.00;;;;;;;5.88;82.02;99914.69;107991;1253;60505;-74
2024/02/24 06:19:19;;;;;;;15.50;10.60;;;;;;;5.95;81.97;99915.86;109110;1252;72540;-76
2024/02/24 06:21:47;;;;;;;17.20;11.30;;;;;;;5.96;81.72;99918.27;106840;1254;68701;-77
2024/02/24 06:24:15;;;;;;;16.70;11.60;;;;;;;5.97;81.92;99918.02;106349;1254;72788;-78
2024/02/24 06:26:43;;;;;;;17.30;11.50;;;;;;;5.98;81.52;99916.98;106296;1259;60491;-78
2024/02/24 06:29:11;;;;;;;15.60;11.20;;;;;;;6.05;81.35;99919.41;106392;1254;60513;-79
2024/02/24 06:31:39;;;;;;;18.20;10.50;;;;;;;6.11;81.20;99913.78;106368;1258;73769;-75
2024/02/24 06:34:06;;;;;;;17.20;10.90;;;;;;;6.11;80.90;99917.84;107200;1259;69962;-78
2024/02/24 06:36:35;;;;;;;17.70;11.80;;;;;;;6.09;80.82;99920.23;106925;1257;71379;-79
2024/02/24 06:39:03;;;;;;;17.20;10.30;;;;;;;6.07;80.58;99922.75;106175;1257;60494;-81
2024/02/24 06:41:31;;;;;;;17.10;10.40;;;;;;;6.12;80.79;99930.59;106812;1258;60389;-77
2024/02/24 06:43:58;;;;;;;16.50;11.30;;;;;;;6.17;80.50;99920.47;106527;1259;73975;-78
2024/02/24 06:46:26;;;;;;;15.00;10.80;;;;;;;6.17;80.61;99919.94;106211;1257;69412;-78
2024/02/24 06:48:54;;;;;;;18.10;11.00;;;;;;;6.16;80.44;99920.96;106559;1254;72593;-81
2024/02/24 06:51:21;;;;;;;16.30;11.20;;;;;;;6.16;80.18;99926.73;106092;1255;60383;-77
2024/02/24 06:53:49;;;;;;;15.80;9.80;;;;;;;6.23;80.23;99924.70;106072;1257;60427;-78
2024/02/24 06:56:19;;;;;;;14.80;10.50;;;;;;;6.29;79.74;99929.58;106438;1258;73976;-78
2024/02/24 06:58:47;;;;;;;15.40;10.90;;;;;;;6.30;79.65;99925.48;106147;1257;68967;-78
2024/02/24 07:01:20;;;;;;;16.10;10.40;;;;;;;6.28;79.67;99921.74;106000;1254;72484;-77
2024/02/24 07:03:48;;;;;;;19.60;11.70;;;;;;;6.30;79.73;99929.70;106150;1254;61930;-77
2024/02/24 07:06:15;;;;;;;14.90;10.00;;;;;;;6.38;79.66;99921.23;105874;1254;59438;-77
2024/02/24 07:08:45;;;;;;;15.30;10.40;;;;;;;6.45;79.39;99929.21;106590;1254;73848;-74
2024/02/24 07:11:12;;;;;;;15.30;10.70;;;;;;;6.47;79.09;99921.27;108341;1253;68807;-75
2024/02/24 07:13:40;;;;;;;15.80;10.30;;;;;;;6.49;79.18;99919.66;108518;1254;71484;-78
2024/02/24 07:16:08;;;;;;;20.60;11.50;;;;;;;6.56;78.97;99922.86;106427;1254;60497;-74
2024/02/24 07:18:36;;;;;;;14.10;9.90;;;;;;;6.61;78.97;99918.54;106353;1254;60491;-75
2024/02/24 07:21:04;;;;;;;20.50;10.30;;;;;;;6.73;78.54;99920.91;106168;1260;73885;-76
2024/02/24 07:23:32;;;;;;;20.40;10.50;;;;;;;6.82;78.04;99912.20;105873;1255;70121;-76
2024/02/24 07:26:00;;;;;;;13.60;9.30;;;;;;;6.83;77.94;99919.50;106069;1259;72660;-77
2024/02/24 07:28:28;;;;;;;17.30;10.70;;;;;;;6.83;77.75;99904.70;105962;1253;60664;-74
2024/02/24 07:30:56;;;;;;;17.20;10.80;;;;;;;6.83;77.27;99909.63;105762;1259;60295;-75
2024/02/24 07:33:23;;;;;;;14.60;9.40;;;;;;;6.83;77.59;99906.99;105960;1259;72556;-77
2024/02/24 07:35:51;;;;;;;15.80;9.90;;;;;;;6.93;77.33;99907.85;106679;1254;71330;-74
2024/02/24 07:38:20;;;;;;;13.40;9.90;;;;;;;6.99;77.07;99905.04;106000;1259;71439;-73
2024/02/24 07:40:47;;;;;;;15.20;9.80;;;;;;;6.99;77.07;99906.98;105820;1253;61113;-74
2024/02/24 07:43:15;;;;;;;14.80;10.00;;;;;;;7.00;77.32;99904.05;105890;1255;60415;-75
2024/02/24 07:45:43;;;;;;;16.70;10.70;;;;;;;7.01;76.63;99899.86;105802;1254;72601;-75
2024/02/24 07:48:11;;;;;;;13.30;9.80;;;;;;;7.01;76.62;99897.84;105470;1254;70631;-75
2024/02/24 07:50:39;;;;;;;17.80;10.20;;;;;;;7.10;76.78;99901.02;106038;1257;72697;-75
2024/02/24 07:53:07;;;;;;;16.20;10.50;;;;;;;7.19;76.44;99894.05;105876;1255;60596;-76
2024/02/24 07:55:35;;;;;;;16.90;10.30;;;;;;;7.20;76.10;99894.46;105908;1259;60495;-74
2024/02/24 07:58:03;;;;;;;14.30;9.70;;;;;;;7.18;76.03;99899.72;105618;1254;71841;-74
2024/02/24 08:00:30;;;;;;;14.50;10.10;;;;;;;7.15;76.10;99880.34;105681;1254;70205;-75
2024/02/24 08:02:58;;;;;;;13.80;8.60;;;;;;;7.11;75.77;99886.86;106883;1255;71861;-76
2024/02/24 08:05:26;;;;;;;14.80;9.30;;;;;;;7.15;75.86;99881.87;107482;1254;60538;-73
2024/02/24 08:07:53;;;;;;;13.40;8.70;;;;;;;7.23;76.00;99889.59;106177;1259;60351;-73
2024/02/24 08:10:20;;;;;;;13.20;8.40;;;;;;;7.24;75.61;99888.08;105954;1257;73841;-75
2024/02/24 08:12:48;;;;;;;13.40;8.20;;;;;;;7.22;75.80;99888.61;105833;1260;70158;-75
2024/02/24 08:15:15;;;;;;;11.10;9.20;;;;;;;7.23;75.94;99886.42;105635;1260;72917;-73
2024/02/24 08:17:43;;;;;;;15.00;9.50;;;;;;;7.25;75.59;99886.38;105999;1257;60464;-74
2024/02/24 08:20:12;;;;;;;13.70;8.40;;;;;;;7.25;75.77;99888.10;105984;1258;60341;-75
2024/02/24 08:22:40;;;;;;;13.10;8.40;;;;;;;7.33;75.50;99895.54;105732;1254;75793;-76
2024/02/24 08:25:08;;;;;;;11.90;7.90;;;;;;;7.42;75.41;99890.98;105937;1258;68834;-75
2024/02/24 08:27:35;;;;;;;11.30;8.90;;;;;;;7.44;75.09;99909.77;105790;1256;71665;-74
2024/02/24 08:30:03;;;;;;;18.70;9.90;;;;;;;7.44;74.97;99893.45;106147;1251;61765;-73
2024/02/24 08:32:31;;;;;;;18.10;10.10;;;;;;;7.44;74.85;99887.05;106654;1251;60443;-75
2024/02/24 08:34:59;;;;;;;14.20;9.10;;;;;;;7.44;74.82;99888.16;106346;1256;71990;-75
2024/02/24 08:37:26;;;;;;;11.90;8.90;;;;;;;7.46;75.08;99880.01;106296;1256;69126;-76
2024/02/24 08:39:54;;;;;;;13.90;9.10;;;;;;;7.62;75.08;99886.67;106049;1255;72458;-73
2024/02/24 08:42:21;;;;;;;19.20;10.20;;;;;;;7.78;74.66;99895.58;106135;1254;62054;-75
2024/02/24 08:44:48;;;;;;;14.50;9.20;;;;;;;7.84;74.04;99897.63;106366;1251;60539;-76
2024/02/24 08:47:16;;;;;;;11.30;9.20;;;;;;;7.86;73.58;99900.07;106292;1256;73834;-75
2024/02/24 08:49:44;;;;;;;15.10;9.80;;;;;;;7.90;73.91;99895.96;106142;1256;68711;-75
2024/02/24 08:52:11;;;;;;;12.40;9.10;;;;;;;7.96;73.52;99903.73;106151;1256;72686;-77
2024/02/24 08:54:39;;;;;;;14.90;10.20;;;;;;;7.99;73.63;99906.77;106249;1251;60423;-76
2024/02/24 08:57:06;;;;;;;12.70;8.90;;;;;;;7.99;73.29;99899.33;106998;1256;60319;-75
2024/02/24 08:59:34;;;;;;;11.30;8.00;;;;;;;8.04;73.22;99903.98;108259;1258;73038;-76
2024/02/24 09:02:01;;;;;;;11.60;7.90;;;;;;;8.06;73.30;99905.54;106783;1254;68929;-74
2024/02/24 09:04:28;;;;;;;13.20;9.00;;;;;;;8.05;73.30;99911.61;106130;1256;72782;-73
2024/02/24 09:06:56;;;;;;;15.20;9.00;;;;;;;8.02;73.17;99908.77;105927;1257;61615;-74
2024/02/24 09:09:23;;;;;;;15.50;9.50;;;;;;;7.99;73.05;99914.33;105973;1257;60421;-74
2024/02/24 09:11:51;;;;;;;17.90;9.70;;;;;;;7.94;73.35;99916.19;106101;1257;73870;-74
2024/02/24 09:14:18;;;;;;;13.10;8.50;;;;;;;7.90;73.64;99920.47;106020;1257;70095;-75
2024/02/24 09:16:46;;;;;;;10.50;8.20;;;;;;;7.96;73.81;99924.83;106041;1257;71479;-76
2024/02/24 09:19:14;;;;;;;13.30;7.70;;;;;;;8.02;73.81;99914.36;106056;1256;60593;-75
2024/02/24 09:21:44;;;;;;;14.70;8.50;;;;;;;8.03;73.89;99914.77;106184;1256;60428;-76
2024/02/24 09:24:12;;;;;;;15.20;9.30;;;;;;;8.04;73.91;99924.96;106994;1254;75954;-76
2024/02/24 09:26:40;;;;;;;12.90;9.00;;;;;;;8.04;74.08;99922.29;107687;1258;71009;-76
2024/02/24 09:29:07;;;;;;;16.90;10.20;;;;;;;8.03;74.06;99918.13;106344;1256;72479;-76
2024/02/24 09:31:35;;;;;;;14.40;8.70;;;;;;;8.03;74.62;99921.20;106391;1257;60606;-77
2024/02/24 09:34:02;;;;;;;14.00;8.60;;;;;;;8.09;74.24;99915.00;106434;1252;60418;-80
2024/02/24 09:36:30;;;;;;;12.30;9.00;;;;;;;8.17;74.40;99914.20;106422;1257;74939;-78
2024/02/24 09:39:00;;;;;;;14.40;9.50;;;;;;;8.21;74.12;99909.02;107457;1256;70007;-77
2024/02/24 09:41:27;;;;;;;12.60;8.60;;;;;;;8.23;74.13;99896.86;107037;1254;72565;-76
2024/02/24 09:43:55;;;;;;;12.40;8.50;;;;;;;8.25;74.37;99903.73;106808;1257;60970;-76
2024/02/24 09:46:23;;;;;;;13.30;8.60;;;;;;;8.27;74.14;99899.81;107012;1251;61119;-76
2024/02/24 09:48:50;;;;;;;15.00;9.10;;;;;;;8.30;74.05;99905.52;109038;1256;74621;-76
2024/02/24 09:51:18;;;;;;;12.40;8.20;;;;;;;8.36;74.28;99908.67;109163;1254;69312;-77
2024/02/24 09:53:46;;;;;;;13.10;8.90;;;;;;;8.50;74.13;99901.73;108641;1254;71082;-76
2024/02/24 09:56:13;;;;;;;13.30;8.80;;;;;;;8.56;73.95;99908.81;107076;1256;61617;-73
2024/02/24 09:58:41;;;;;;;12.70;9.00;;;;;;;8.59;73.78;99914.90;106074;1251;60881;-78
2024/02/24 10:01:10;;;;;;;16.10;10.50;;;;;;;8.59;73.99;99913.66;106195;1254;73091;-78
2024/02/24 10:03:40;;;;;;;17.90;10.40;;;;;;;8.60;74.15;99906.55;106453;1255;68917;-76
2024/02/24 10:06:11;;;;;;;18.00;9.50;;;;;;;8.63;74.23;99913.66;106100;1257;74253;-77
2024/02/24 10:08:39;;;;;;;17.10;9.10;;;;;;;8.68;74.36;99910.28;106670;1259;61614;-77
2024/02/24 10:11:06;;;;;;;15.80;9.50;;;;;;;8.82;74.30;99899.06;106712;1254;60481;-78
2024/02/24 10:13:35;;;;;;;15.90;9.80;;;;;;;8.91;74.16;99906.29;106425;1251;72144;-75
2024/02/24 10:16:41;;;;;;;14.10;9.20;;;;;;;8.97;73.98;99907.56;103429;1293;600337;-75
2024/02/24 10:19:08;;;;;;;13.20;9.00;;;;;;;8.98;73.86;99921.85;108406;1266;58882;-75
2024/02/24 10:21:36;;;;;;;13.40;8.70;;;;;;;8.97;73.78;99906.74;106200;1267;60227;-75
2024/02/24 10:24:04;;;;;;;11.60;8.10;;;;;;;8.96;73.75;99913.42;105420;1265;72352;-78
2024/02/24 10:26:32;;;;;;;16.00;8.30;;;;;;;9.00;74.16;99905.05;106353;1267;70496;-74
2024/02/24 10:29:07;;;;;;;14.60;8.00;;;;;;;9.06;73.80;99907.27;107888;1263;71160;-76
2024/02/24 10:31:35;;;;;;;14.80;9.00;;;;;;;9.02;74.01;99920.67;108306;1260;59243;-76
2024/02/24 10:34:03;;;;;;;18.10;9.30;;;;;;;9.00;73.89;99919.19;108448;1259;62301;-77
2024/02/24 10:36:31;;;;;;;15.00;9.00;;;;;;;8.95;74.27;99923.18;108648;1260;73129;-74
2024/02/24 10:38:58;;;;;;;15.70;8.60;;;;;;;8.89;74.68;99934.73;108166;1260;70214;-72
2024/02/24 10:41:26;;;;;;;15.00;8.30;;;;;;;8.95;74.47;99953.27;107309;1260;72270;-76
2024/02/24 10:43:58;;;;;;;13.90;8.90;;;;;;;8.95;74.46;99925.66;107801;1260;62022;-74
2024/02/24 10:46:41;;;;;;;15.50;9.80;;;;;;;8.90;74.65;99915.37;108393;1257;61391;-75
2024/02/24 10:49:12;;;;;;;12.90;8.30;;;;;;;8.89;74.67;99923.48;109031;1256;74178;-73
2024/02/24 10:51:45;;;;;;;14.30;9.00;;;;;;;8.89;75.04;99906.52;108713;1256;68722;-73
2024/02/24 10:54:19;;;;;;;15.10;7.90;;;;;;;8.91;75.33;99906.99;108179;1256;71421;-73
2024/02/24 10:56:47;;;;;;;12.80;8.60;;;;;;;9.04;75.23;99918.54;108349;1257;62709;-72
2024/02/24 10:59:14;;;;;;;14.80;9.80;;;;;;;9.13;74.44;99904.48;108436;1257;58775;-72
2024/02/24 11:01:45;;;;;;;13.00;9.00;;;;;;;9.13;74.52;99896.95;108642;1257;70878;-73
2024/02/24 11:04:15;;;;;;;17.00;9.20;;;;;;;9.15;74.69;99892.89;107605;1256;71443;-72
2024/02/24 11:06:53;;;;;;;12.80;8.80;;;;;;;9.17;74.60;99883.20;107347;1256;73749;-74
2024/02/24 11:09:39;;;;;;;14.50;9.30;;;;;;;9.18;74.70;99882.77;106699;1257;59971;-73
2024/02/24 11:12:07;;;;;;;11.80;8.90;;;;;;;9.26;74.27;99899.27;107728;1253;60104;-73
2024/02/24 11:14:40;;;;;;;10.90;8.00;;;;;;;9.31;74.24;99909.84;108547;1254;73099;-72
2024/02/24 11:17:12;;;;;;;16.30;8.80;;;;;;;9.29;73.98;99895.24;107567;1254;69136;-74
2024/02/24 11:19:46;;;;;;;15.00;9.20;;;;;;;9.25;74.34;99902.17;107284;1261;70880;-74
2024/02/24 11:22:21;;;;;;;15.70;9.70;;;;;;;9.21;74.55;99891.26;106812;1254;59689;-73
2024/02/24 11:25:12;;;;;;;10.60;7.90;;;;;;;9.19;74.58;99885.60;107590;1254;61142;-73